Time;durP1;ratioP1;P1;durP2;ratioP2;P2;SDS_P1;SDS_P2;PMS_P1;PMS_P2;Temp;Humidity;BMP_temperature;BMP_pressure;BME280_temperature;BME280_humidity;BME280_pressure;Samples;Min_cycle;Max_cycle;Signal;HPM_P1;HPM_P2
2021/12/23 00:00:12;;;;;;;18.00;10.33;;;22.60;99.90;;;;;;5013325;28;20180;-72
2021/12/23 00:02:40;;;;;;;20.87;10.80;;;22.70;99.90;;;;;;5013039;28;20218;-72
2021/12/23 00:05:10;;;;;;;19.10;10.43;;;22.70;99.90;;;;;;5013030;28;20636;-72
2021/12/23 00:07:38;;;;;;;21.60;11.87;;;22.60;99.90;;;;;;5013091;28;20181;-71
2021/12/23 00:10:09;;;;;;;22.30;10.33;;;22.60;99.90;;;;;;5013049;28;20186;-72
2021/12/23 00:12:41;;;;;;;17.30;11.33;;;22.70;99.90;;;;;;5013149;28;20181;-72
2021/12/23 00:15:39;;;;;;;22.57;10.73;;;22.70;99.90;;;;;;5013045;28;20627;-72
2021/12/23 00:23:41;;;;;;;19.40;9.87;;;22.60;99.90;;;;;;5013003;28;20592;-73
2021/12/23 00:26:09;;;;;;;20.00;9.77;;;22.70;99.90;;;;;;5012750;28;20201;-72
2021/12/23 00:28:37;;;;;;;18.70;9.80;;;22.80;99.90;;;;;;5012854;28;20229;-72
2021/12/23 00:31:06;;;;;;;21.17;8.33;;;23.10;99.90;;;;;;5012337;28;20232;-72
2021/12/23 00:33:36;;;;;;;16.13;8.33;;;23.30;99.90;;;;;;5012832;28;20173;-73
2021/12/23 00:36:07;;;;;;;19.33;8.67;;;23.60;99.90;;;;;;5013915;28;20174;-73
2021/12/23 00:38:39;;;;;;;16.77;7.17;;;23.90;99.90;;;;;;5016384;28;20178;-73
2021/12/23 00:41:08;;;;;;;15.30;7.03;;;24.10;99.90;;;;;;4998852;28;20217;-73
2021/12/23 00:43:37;;;;;;;14.63;6.50;;;24.40;99.90;;;;;;5016218;28;20197;-73
2021/12/23 00:46:05;;;;;;;11.97;5.67;;;24.70;99.90;;;;;;5016133;28;20178;-70
2021/12/23 00:48:35;;;;;;;10.77;6.33;;;24.90;99.90;;;;;;5016172;28;20206;-72
2021/12/23 00:51:04;;;;;;;13.40;6.37;;;25.10;99.90;;;;;;5016401;28;20223;-73
2021/12/23 00:53:40;;;;;;;14.67;5.97;;;25.30;99.90;;;;;;5015966;28;20253;-73
2021/12/23 00:56:12;;;;;;;16.17;6.37;;;25.50;99.90;;;;;;5016018;28;20181;-73
2021/12/23 00:58:40;;;;;;;18.83;5.93;;;25.50;99.90;;;;;;5016126;28;20181;-72
2021/12/23 01:01:09;;;;;;;9.57;5.53;;;25.60;99.90;;;;;;5016201;28;20647;-72
2021/12/23 01:03:37;;;;;;;11.13;6.33;;;25.70;99.90;;;;;;5015858;28;20225;-72
2021/12/23 01:06:05;;;;;;;16.13;6.73;;;25.90;99.90;;;;;;5015888;28;20176;-72
2021/12/23 01:08:33;;;;;;;13.57;6.47;;;26.10;99.90;;;;;;4998264;28;20548;-72
2021/12/23 01:11:04;;;;;;;12.13;5.83;;;26.30;99.90;;;;;;5014487;28;20186;-71
2021/12/23 01:13:31;;;;;;;12.33;5.53;;;26.00;99.90;;;;;;4998067;28;20243;-71
2021/12/23 01:16:13;;;;;;;14.00;6.10;;;26.30;99.90;;;;;;5015563;28;20184;-72
2021/12/23 01:18:53;;;;;;;11.73;5.80;;;26.40;99.90;;;;;;5015875;28;20177;-72
2021/12/23 01:21:21;;;;;;;14.23;6.33;;;26.60;99.90;;;;;;5015717;28;20188;-72
2021/12/23 01:23:57;;;;;;;10.97;5.90;;;26.60;99.90;;;;;;5015302;28;20213;-72
2021/12/23 01:26:25;;;;;;;14.73;7.37;;;26.60;99.90;;;;;;5015342;28;20232;-73
2021/12/23 01:28:58;;;;;;;17.97;7.73;;;26.50;99.90;;;;;;5015479;28;20268;-72
2021/12/23 01:31:32;;;;;;;14.57;6.53;;;26.50;99.90;;;;;;5015273;28;20237;-72
2021/12/23 01:34:00;;;;;;;14.37;6.80;;;26.60;99.90;;;;;;5015496;28;20184;-72
2021/12/23 01:36:28;;;;;;;14.37;6.50;;;26.60;99.90;;;;;;5015345;28;20170;-72
2021/12/23 01:38:56;;;;;;;14.20;5.67;;;26.50;99.90;;;;;;5015214;28;20608;-72
2021/12/23 01:41:26;;;;;;;10.43;5.30;;;26.30;99.90;;;;;;5015234;28;20174;-72
2021/12/23 01:43:54;;;;;;;12.53;4.77;;;26.10;99.90;;;;;;5015029;28;20679;-72
2021/12/23 01:46:22;;;;;;;7.97;4.77;;;25.90;99.90;;;;;;5014967;28;20182;-72
2021/12/23 01:48:51;;;;;;;13.03;5.20;;;25.80;99.90;;;;;;5014249;28;20182;-72
2021/12/23 01:51:19;;;;;;;14.27;5.13;;;26.00;99.90;;;;;;5014833;28;20646;-72
2021/12/23 01:53:47;;;;;;;18.20;5.73;;;26.90;99.90;;;;;;5009500;28;20630;-72
2021/12/23 01:56:15;;;;;;;10.07;5.03;;;27.40;99.90;;;;;;5004794;28;20198;-72
2021/12/23 01:58:43;;;;;;;11.43;5.30;;;27.70;99.90;;;;;;4996048;28;20257;-72
2021/12/23 02:01:11;;;;;;;10.83;5.10;;;27.80;99.90;;;;;;4995119;28;20660;-72
2021/12/23 02:03:40;;;;;;;10.80;5.30;;;27.70;99.90;;;;;;5007729;28;20222;-71
2021/12/23 02:06:08;;;;;;;10.97;5.10;;;27.90;99.90;;;;;;5000783;28;20213;-72
2021/12/23 02:08:38;;;;;;;9.30;4.73;;;28.00;99.90;;;;;;4994946;28;20550;-73
2021/12/23 02:11:09;;;;;;;11.97;4.83;;;28.00;99.90;;;;;;4994666;28;20694;-71
2021/12/23 02:13:38;;;;;;;11.73;5.37;;;27.80;99.90;;;;;;4994992;28;20265;-71
2021/12/23 02:16:07;;;;;;;14.77;5.33;;;27.60;99.90;;;;;;4994770;28;20185;-73
2021/12/23 02:18:36;;;;;;;12.93;5.10;;;27.30;99.90;;;;;;4977370;28;20186;-72
2021/12/23 02:21:05;;;;;;;14.43;5.20;;;27.00;99.90;;;;;;4994838;28;20170;-71
2021/12/23 02:23:33;;;;;;;9.40;4.20;;;27.00;99.90;;;;;;4994839;28;20202;-71
2021/12/23 02:26:01;;;;;;;12.73;4.50;;;26.70;99.90;;;;;;4994808;28;20603;-71
2021/12/23 02:28:29;;;;;;;11.77;4.33;;;26.60;99.90;;;;;;4994788;28;20233;-73
2021/12/23 02:30:56;;;;;;;6.00;3.90;;;26.60;99.90;;;;;;4994291;28;20304;-72
2021/12/23 02:33:26;;;;;;;11.03;4.50;;;26.60;99.90;;;;;;4995827;28;20198;-71
2021/12/23 02:35:57;;;;;;;9.17;4.33;;;26.90;99.90;;;;;;4995495;28;20261;-71
2021/12/23 02:38:25;;;;;;;12.63;3.70;;;27.30;99.90;;;;;;4994546;28;20261;-73
2021/12/23 02:40:53;;;;;;;9.40;4.40;;;27.70;99.90;;;;;;4994533;28;20273;-72
2021/12/23 02:43:24;;;;;;;8.63;4.10;;;28.00;99.90;;;;;;4994277;28;20277;-72
2021/12/23 02:45:54;;;;;;;8.30;4.10;;;28.20;99.90;;;;;;4994346;28;20182;-72
2021/12/23 02:48:25;;;;;;;7.33;3.70;;;28.90;99.90;;;;;;4994219;28;20183;-71
2021/12/23 02:50:55;;;;;;;9.33;4.10;;;28.90;99.90;;;;;;4993967;28;20185;-71
2021/12/23 02:53:23;;;;;;;6.63;3.27;;;29.30;99.90;;;;;;4994359;28;20541;-71
2021/12/23 02:55:56;;;;;;;7.93;4.00;;;29.80;99.90;;;;;;4994558;28;20182;-71
2021/12/23 02:58:24;;;;;;;8.73;3.67;;;29.50;99.90;;;;;;4994278;28;20206;-72
2021/12/23 03:00:54;;;;;;;8.33;3.77;;;28.90;99.90;;;;;;4993501;28;20175;-71
2021/12/23 03:03:22;;;;;;;9.53;3.43;;;28.50;99.90;;;;;;4994203;28;20209;-72
2021/12/23 03:05:53;;;;;;;7.73;3.67;;;28.40;99.90;;;;;;4994235;28;20632;-72
2021/12/23 03:08:36;;;;;;;7.93;3.53;;;28.50;99.90;;;;;;4994184;28;20574;-71
2021/12/23 03:11:06;;;;;;;8.23;3.37;;;29.40;99.90;;;;;;4994009;28;20709;-72
2021/12/23 03:13:34;;;;;;;9.70;3.60;;;29.90;99.90;;;;;;4994117;28;20178;-71
2021/12/23 03:16:03;;;;;;;8.57;3.50;;;30.00;99.90;;;;;;4993914;28;20232;-72
2021/12/23 03:18:32;;;;;;;13.23;3.93;;;30.30;99.90;;;;;;4993870;28;20182;-72
2021/12/23 03:21:00;;;;;;;9.23;3.83;;;30.00;99.90;;;;;;4993956;28;20174;-71
2021/12/23 03:23:28;;;;;;;8.10;4.10;;;29.90;99.90;;;;;;4993728;28;20199;-71
2021/12/23 03:25:56;;;;;;;12.63;4.43;;;29.80;99.90;;;;;;4993892;28;20641;-71
2021/12/23 03:28:24;;;;;;;12.17;4.70;;;29.60;99.90;;;;;;4993986;28;20179;-71
2021/12/23 03:30:52;;;;;;;13.27;4.40;;;29.70;99.90;;;;;;4975995;28;20321;-71
2021/12/23 03:33:20;;;;;;;13.50;4.30;;;30.10;99.90;;;;;;4993776;28;20187;-71
2021/12/23 03:35:49;;;;;;;11.37;4.67;;;30.00;99.90;;;;;;4993793;28;20321;-71
2021/12/23 03:38:17;;;;;;;12.13;4.77;;;30.00;99.90;;;;;;4976310;28;20186;-71
2021/12/23 03:40:46;;;;;;;14.17;4.80;;;30.10;99.90;;;;;;4993722;28;20182;-71
2021/12/23 03:43:16;;;;;;;12.90;5.33;;;29.50;99.90;;;;;;4976143;28;20222;-71
2021/12/23 03:45:45;;;;;;;13.53;5.63;;;29.80;99.90;;;;;;4993491;28;20648;-71
2021/12/23 03:48:14;;;;;;;13.13;5.83;;;29.70;99.90;;;;;;4993643;28;20179;-70
2021/12/23 03:50:44;;;;;;;19.13;5.93;;;29.40;99.90;;;;;;4993501;28;20171;-71
2021/12/23 03:53:12;;;;;;;14.00;6.13;;;29.50;99.90;;;;;;4993885;28;20225;-70
2021/12/23 03:55:40;;;;;;;17.50;5.97;;;29.70;99.90;;;;;;4993559;28;20182;-70
2021/12/23 03:58:08;;;;;;;15.70;5.53;;;29.40;99.90;;;;;;4975990;28;20679;-71
2021/12/23 04:00:37;;;;;;;16.33;5.30;;;29.40;99.90;;;;;;4993603;28;20189;-71
2021/12/23 04:03:04;;;;;;;17.67;5.97;;;29.40;99.90;;;;;;4993536;28;20644;-71
2021/12/23 04:05:32;;;;;;;11.90;5.67;;;29.50;99.90;;;;;;4975956;28;20198;-71
2021/12/23 04:08:00;;;;;;;15.43;5.60;;;29.40;99.90;;;;;;4993709;28;20185;-71
2021/12/23 04:10:28;;;;;;;14.30;5.20;;;29.20;99.90;;;;;;4993329;28;20249;-71
2021/12/23 04:12:56;;;;;;;11.17;5.20;;;29.80;99.90;;;;;;4997244;28;20543;-71
2021/12/23 04:15:25;;;;;;;10.73;4.80;;;29.90;99.90;;;;;;4979843;28;20259;-71
2021/12/23 04:17:53;;;;;;;9.73;4.73;;;29.70;99.90;;;;;;4997278;28;20648;-71
2021/12/23 04:20:23;;;;;;;13.57;5.60;;;29.10;99.90;;;;;;4997025;28;20179;-72
2021/12/23 04:22:54;;;;;;;9.17;5.57;;;28.60;99.90;;;;;;5002975;28;20231;-70
2021/12/23 04:25:25;;;;;;;12.70;6.00;;;28.40;99.90;;;;;;5007828;28;20262;-69
2021/12/23 04:27:57;;;;;;;8.60;5.57;;;28.00;99.90;;;;;;5007603;28;20182;-71
2021/12/23 04:30:26;;;;;;;12.07;6.07;;;27.80;99.90;;;;;;4996654;28;20230;-70
2021/12/23 04:32:55;;;;;;;12.43;5.70;;;27.60;99.90;;;;;;4997566;28;20277;-67
2021/12/23 04:35:23;;;;;;;15.43;5.63;;;27.60;99.90;;;;;;5014851;28;20189;-68
2021/12/23 04:37:51;;;;;;;11.90;5.80;;;27.50;99.90;;;;;;5015216;28;20178;-68
2021/12/23 04:40:19;;;;;;;8.70;5.20;;;27.40;99.90;;;;;;5015096;28;20193;-69
2021/12/23 04:42:47;;;;;;;11.80;5.57;;;27.40;99.90;;;;;;5014491;28;20277;-68
2021/12/23 04:45:15;;;;;;;15.47;6.27;;;27.50;99.90;;;;;;5015069;28;20185;-69
2021/12/23 04:47:43;;;;;;;11.57;5.93;;;27.60;99.90;;;;;;5015099;28;20227;-69
2021/12/23 04:50:13;;;;;;;14.00;6.10;;;27.40;99.90;;;;;;5014728;28;20174;-68
2021/12/23 04:52:42;;;;;;;18.43;6.07;;;27.40;99.90;;;;;;5013310;28;20239;-69
2021/12/23 04:55:11;;;;;;;20.10;6.27;;;27.50;99.90;;;;;;5014432;28;20655;-68
2021/12/23 04:57:39;;;;;;;14.27;6.10;;;27.40;99.90;;;;;;5014287;28;20231;-68
2021/12/23 05:00:16;;;;;;;17.17;5.13;;;27.20;99.90;;;;;;4984804;28;20190;-68
2021/12/23 05:02:44;;;;;;;13.47;4.93;;;27.20;99.90;;;;;;4995889;28;20174;-68
2021/12/23 05:05:12;;;;;;;12.00;5.57;;;27.10;99.90;;;;;;5014495;28;20189;-69
2021/12/23 05:07:40;;;;;;;19.10;4.97;;;26.90;99.90;;;;;;5005043;28;20187;-69
2021/12/23 05:10:10;;;;;;;16.67;5.50;;;26.80;99.90;;;;;;4977293;28;20553;-68
2021/12/23 05:12:45;;;;;;;13.73;4.73;;;26.60;99.90;;;;;;5006082;28;20197;-68
2021/12/23 05:15:19;;;;;;;13.70;4.57;;;26.60;99.90;;;;;;4994641;28;20239;-68
2021/12/23 05:17:47;;;;;;;10.67;4.60;;;26.40;99.90;;;;;;4994873;28;20210;-68
2021/12/23 05:20:18;;;;;;;17.07;4.90;;;26.30;99.90;;;;;;4994614;28;20681;-68
2021/12/23 05:22:47;;;;;;;15.93;4.47;;;26.30;99.90;;;;;;4997300;28;20244;-68
2021/12/23 05:25:15;;;;;;;11.93;3.93;;;26.30;99.90;;;;;;5014351;28;20182;-68
2021/12/23 05:27:43;;;;;;;12.50;4.13;;;26.00;99.90;;;;;;5004083;28;20263;-68
2021/12/23 05:30:15;;;;;;;14.60;4.87;;;26.00;99.90;;;;;;4994274;28;20250;-69
2021/12/23 05:32:44;;;;;;;16.47;4.77;;;25.80;99.90;;;;;;4994552;28;20269;-67
2021/12/23 05:35:14;;;;;;;10.10;4.00;;;25.70;99.90;;;;;;4998748;28;20201;-70
2021/12/23 05:37:43;;;;;;;12.23;4.13;;;25.60;99.90;;;;;;5013946;28;20174;-70
2021/12/23 05:40:14;;;;;;;14.80;4.17;;;25.60;99.90;;;;;;5013797;28;20217;-69
2021/12/23 05:42:43;;;;;;;17.33;4.83;;;25.60;99.90;;;;;;4996262;28;20632;-69
2021/12/23 05:45:12;;;;;;;16.60;3.87;;;25.60;99.90;;;;;;5013755;28;20237;-67
2021/12/23 05:47:40;;;;;;;24.97;4.90;;;25.50;99.90;;;;;;5013753;28;20666;-69
2021/12/23 05:50:09;;;;;;;16.67;4.10;;;25.40;99.90;;;;;;5004500;28;20178;-68
2021/12/23 05:52:37;;;;;;;11.77;3.90;;;25.30;99.90;;;;;;4994099;28;20217;-68
2021/12/23 05:55:07;;;;;;;16.60;4.70;;;25.20;99.90;;;;;;5005711;28;20273;-68
2021/12/23 05:57:36;;;;;;;11.17;4.27;;;25.20;99.90;;;;;;5010208;28;20185;-68
2021/12/23 06:00:17;;;;;;;14.73;4.27;;;25.10;99.90;;;;;;5013494;28;20184;-68
2021/12/23 06:02:45;;;;;;;15.80;4.70;;;25.00;99.90;;;;;;5007040;28;20178;-69
2021/12/23 06:05:13;;;;;;;14.20;4.97;;;24.90;99.90;;;;;;4993811;28;20675;-69
2021/12/23 06:07:42;;;;;;;15.40;4.63;;;25.00;99.90;;;;;;4993711;28;20185;-69
2021/12/23 06:10:10;;;;;;;11.30;5.10;;;25.00;99.90;;;;;;4993577;28;20212;-70
2021/12/23 06:12:38;;;;;;;13.10;4.77;;;25.10;99.90;;;;;;4993581;28;20562;-69
2021/12/23 06:15:06;;;;;;;15.30;5.47;;;25.10;99.90;;;;;;4993760;28;20595;-69
2021/12/23 06:17:35;;;;;;;13.63;5.17;;;25.10;99.90;;;;;;4993549;28;20261;-69
2021/12/23 06:20:06;;;;;;;13.73;5.03;;;25.20;99.90;;;;;;4993585;28;20659;-69
2021/12/23 06:22:36;;;;;;;14.23;4.97;;;25.20;99.90;;;;;;4993509;28;20182;-69
2021/12/23 06:25:10;;;;;;;13.53;5.43;;;25.20;99.90;;;;;;4993483;28;20217;-69
2021/12/23 06:27:38;;;;;;;14.13;5.23;;;25.20;99.90;;;;;;4996333;28;20641;-70
2021/12/23 06:30:18;;;;;;;13.07;4.77;;;25.30;99.90;;;;;;5012320;28;20229;-67
2021/12/23 06:32:56;;;;;;;11.70;4.07;;;25.30;99.90;;;;;;4995152;28;20193;-69
2021/12/23 06:35:27;;;;;;;17.33;4.87;;;25.30;99.90;;;;;;5012949;28;20184;-69
2021/12/23 06:37:56;;;;;;;14.77;5.00;;;25.20;99.90;;;;;;5012825;28;20189;-69
2021/12/23 06:40:24;;;;;;;14.93;4.30;;;25.20;99.90;;;;;;5012920;28;20178;-68
2021/12/23 06:42:52;;;;;;;19.97;4.77;;;25.20;99.90;;;;;;5001334;28;20273;-69
2021/12/23 06:45:20;;;;;;;17.40;4.73;;;25.20;99.90;;;;;;4993104;28;20205;-69
2021/12/23 06:47:48;;;;;;;17.37;4.37;;;25.20;99.90;;;;;;4991938;28;20221;-69
2021/12/23 06:50:19;;;;;;;15.20;5.23;;;25.10;99.90;;;;;;4992953;28;20187;-69
2021/12/23 06:52:47;;;;;;;14.73;4.13;;;25.10;99.90;;;;;;5009506;28;20193;-68
2021/12/23 06:55:17;;;;;;;19.60;4.97;;;25.10;99.90;;;;;;5010342;28;20287;-70
2021/12/23 06:57:45;;;;;;;14.07;4.87;;;25.00;99.90;;;;;;4992991;28;20713;-69
2021/12/23 07:00:18;;;;;;;15.03;4.60;;;25.00;99.90;;;;;;4975675;28;20558;-68
2021/12/23 07:02:46;;;;;;;16.93;4.83;;;25.00;99.90;;;;;;5001192;28;20214;-68
2021/12/23 07:05:15;;;;;;;18.63;4.93;;;25.00;99.90;;;;;;5013003;28;20185;-69
2021/12/23 07:10:26;;;;;;;15.63;4.97;;;25.00;99.90;;;;;;4992833;28;20174;-68
2021/12/23 07:12:55;;;;;;;11.23;4.07;;;25.00;99.90;;;;;;4993022;28;20236;-68
2021/12/23 07:15:24;;;;;;;16.67;4.90;;;24.90;99.90;;;;;;4992700;28;20261;-68
2021/12/23 07:17:53;;;;;;;10.80;4.30;;;24.90;99.90;;;;;;4992526;28;20549;-68
2021/12/23 07:20:23;;;;;;;13.37;4.33;;;24.90;99.90;;;;;;4992664;28;20186;-69
2021/12/23 07:22:51;;;;;;;14.50;4.03;;;25.00;99.90;;;;;;4992545;28;20277;-68
2021/12/23 07:25:19;;;;;;;9.63;3.83;;;24.80;99.90;;;;;;4992633;28;20260;-68
2021/12/23 07:27:47;;;;;;;14.47;4.40;;;24.80;99.90;;;;;;4993003;28;20550;-68
2021/12/23 07:30:18;;;;;;;14.57;4.53;;;24.90;99.90;;;;;;4992205;28;20289;-68
2021/12/23 07:32:47;;;;;;;8.87;3.00;;;24.90;99.90;;;;;;4992541;28;20183;-68
2021/12/23 07:35:15;;;;;;;8.63;3.67;;;24.90;99.90;;;;;;4992561;28;20269;-69
2021/12/23 07:37:43;;;;;;;12.83;3.87;;;24.90;99.90;;;;;;4992823;28;20219;-69
2021/12/23 07:40:17;;;;;;;14.07;3.90;;;24.80;99.90;;;;;;4992352;28;20659;-69
2021/12/23 07:42:57;;;;;;;13.60;3.60;;;24.90;99.90;;;;;;4992504;28;20648;-69
2021/12/23 07:45:29;;;;;;;11.43;3.50;;;24.90;99.90;;;;;;5000807;28;20194;-70
2021/12/23 07:47:57;;;;;;;14.67;4.30;;;24.90;99.90;;;;;;5016081;28;20174;-69
2021/12/23 07:50:25;;;;;;;13.47;3.03;;;25.00;99.90;;;;;;5016088;28;20263;-69
2021/12/23 07:52:54;;;;;;;9.67;3.17;;;24.90;99.90;;;;;;5005576;28;20194;-69
2021/12/23 07:55:22;;;;;;;8.87;3.07;;;24.80;99.90;;;;;;4996363;28;20186;-69
2021/12/23 07:57:51;;;;;;;20.17;4.50;;;24.80;99.90;;;;;;5012267;28;20189;-69
2021/12/23 08:00:19;;;;;;;12.57;4.47;;;24.80;99.90;;;;;;5015953;28;20662;-68
2021/12/23 08:02:47;;;;;;;13.60;4.00;;;24.90;99.90;;;;;;5015766;28;20321;-69
2021/12/23 08:05:15;;;;;;;17.80;3.97;;;24.80;99.90;;;;;;5015504;28;20565;-68
2021/12/23 08:07:43;;;;;;;16.00;4.10;;;24.80;99.90;;;;;;5001710;28;20189;-69
2021/12/23 08:10:11;;;;;;;12.70;3.57;;;24.80;99.90;;;;;;4995964;28;20183;-69
2021/12/23 08:12:38;;;;;;;15.20;4.33;;;24.80;99.90;;;;;;4996216;28;20217;-70
2021/12/23 08:15:07;;;;;;;13.07;3.83;;;24.70;99.90;;;;;;4996153;28;20196;-70
2021/12/23 08:17:35;;;;;;;12.87;3.90;;;24.70;99.90;;;;;;4996205;28;20174;-68
2021/12/23 08:20:04;;;;;;;12.67;3.80;;;24.70;99.90;;;;;;4996006;28;20178;-68
2021/12/23 08:22:32;;;;;;;13.87;4.30;;;24.60;99.90;;;;;;5012844;28;20229;-68
2021/12/23 08:25:00;;;;;;;12.00;3.93;;;24.60;99.90;;;;;;5004846;28;20305;-68
2021/12/23 08:27:29;;;;;;;19.63;4.67;;;24.60;99.90;;;;;;4995851;28;20617;-69
2021/12/23 08:29:57;;;;;;;12.87;4.10;;;24.60;99.90;;;;;;4995461;28;20226;-69
2021/12/23 08:32:25;;;;;;;13.47;5.00;;;24.60;99.90;;;;;;4995787;28;20175;-69
2021/12/23 08:34:53;;;;;;;13.23;3.93;;;24.50;99.90;;;;;;4995797;28;20278;-68
2021/12/23 08:37:21;;;;;;;10.57;4.20;;;24.40;99.90;;;;;;4995667;28;20244;-68
2021/12/23 08:39:49;;;;;;;11.00;4.30;;;24.40;99.90;;;;;;4995654;28;20182;-68
2021/12/23 08:42:17;;;;;;;18.57;5.63;;;24.40;99.90;;;;;;4995440;28;20182;-69
2021/12/23 08:44:45;;;;;;;13.87;4.93;;;24.40;99.90;;;;;;4995658;28;20554;-68
2021/12/23 08:47:14;;;;;;;12.63;4.10;;;24.40;99.90;;;;;;5008773;28;20209;-68
2021/12/23 08:49:46;;;;;;;13.27;4.90;;;24.40;99.90;;;;;;5015095;28;20190;-70
2021/12/23 08:52:14;;;;;;;15.83;5.40;;;24.40;99.90;;;;;;5010868;28;20586;-69
2021/12/23 08:54:42;;;;;;;13.53;4.80;;;24.30;99.90;;;;;;4997333;28;20218;-69
2021/12/23 08:57:11;;;;;;;18.23;5.00;;;24.20;99.90;;;;;;5011659;28;20184;-69
2021/12/23 08:59:39;;;;;;;15.60;5.03;;;24.20;99.90;;;;;;5014558;28;20186;-70
2021/12/23 09:02:07;;;;;;;18.97;5.53;;;24.20;99.90;;;;;;5014606;28;20213;-70
2021/12/23 09:04:38;;;;;;;15.43;5.50;;;24.10;99.90;;;;;;5015147;28;20244;-69
2021/12/23 09:07:07;;;;;;;15.20;5.30;;;24.10;99.90;;;;;;5014958;28;20207;-71
2021/12/23 09:09:36;;;;;;;17.73;5.80;;;24.10;99.90;;;;;;5014796;28;20587;-70
2021/12/23 09:12:06;;;;;;;18.60;5.63;;;24.10;99.90;;;;;;5014430;28;20255;-69
2021/12/23 09:14:35;;;;;;;14.67;5.13;;;24.10;99.90;;;;;;5013289;28;20186;-69
2021/12/23 09:17:03;;;;;;;11.83;5.37;;;24.00;99.90;;;;;;5014626;28;20680;-69
2021/12/23 09:19:31;;;;;;;18.27;6.03;;;23.90;99.90;;;;;;5014622;28;20324;-70
2021/12/23 09:21:59;;;;;;;16.73;6.03;;;23.90;99.90;;;;;;5014269;28;20568;-68
2021/12/23 09:24:31;;;;;;;19.00;5.50;;;23.90;99.90;;;;;;5014289;28;20659;-69
2021/12/23 09:27:10;;;;;;;16.07;6.43;;;23.80;99.90;;;;;;5014261;28;20197;-70
2021/12/23 09:32:42;;;;;;;17.00;5.53;;;23.80;99.90;;;;;;5014213;28;20248;-69
2021/12/23 09:35:13;;;;;;;15.80;6.10;;;23.70;99.90;;;;;;5014201;28;20238;-69
2021/12/23 09:37:41;;;;;;;15.00;6.23;;;23.60;99.90;;;;;;5014199;28;20726;-69
2021/12/23 09:40:09;;;;;;;19.77;6.57;;;23.50;99.90;;;;;;5014175;28;20189;-69
2021/12/23 09:42:37;;;;;;;18.83;7.00;;;23.50;99.90;;;;;;5014125;28;20586;-69
2021/12/23 09:45:10;;;;;;;17.53;6.87;;;23.50;99.90;;;;;;5014056;28;20220;-69
2021/12/23 09:47:41;;;;;;;15.93;6.30;;;23.50;99.90;;;;;;5011713;28;20189;-70
2021/12/23 09:50:12;;;;;;;17.27;5.57;;;23.40;99.90;;;;;;5013842;28;20205;-69
2021/12/23 09:52:45;;;;;;;16.20;5.97;;;23.40;99.90;;;;;;5011846;28;20608;-70
2021/12/23 09:55:15;;;;;;;15.83;6.00;;;23.30;99.90;;;;;;5014049;28;20185;-70
2021/12/23 09:57:46;;;;;;;15.93;5.80;;;23.20;99.90;;;;;;5003040;28;20281;-68
2021/12/23 10:00:15;;;;;;;13.13;6.07;;;23.20;99.90;;;;;;5000128;28;20212;-67
2021/12/23 10:02:44;;;;;;;18.60;7.13;;;23.20;99.90;;;;;;5013693;28;20235;-67
2021/12/23 10:05:18;;;;;;;12.07;5.70;;;23.20;99.90;;;;;;5013745;28;20225;-68
2021/12/23 10:07:48;;;;;;;16.50;6.13;;;23.10;99.90;;;;;;5010395;28;20197;-68
2021/12/23 10:10:26;;;;;;;16.93;5.67;;;23.10;99.90;;;;;;5012780;28;20197;-68
2021/12/23 10:26:55;;;;;;;17.47;5.80;;;23.00;99.90;;;;;;5013168;28;20190;-68
2021/12/23 10:30:21;;;;;;;12.83;5.40;;;23.00;99.90;;;;;;5012989;28;20232;-68
2021/12/23 10:38:51;;;;;;;15.93;4.97;;;23.00;99.90;;;;;;5013196;28;20212;-69
2021/12/23 10:41:24;;;;;;;17.17;5.63;;;23.00;99.90;;;;;;5013192;28;20583;-69
2021/12/23 10:44:02;;;;;;;12.53;4.83;;;23.00;99.90;;;;;;5012973;28;20216;-69
2021/12/23 10:46:39;;;;;;;15.57;5.27;;;23.00;99.90;;;;;;5005358;28;20182;-69
2021/12/23 10:52:05;;;;;;;13.80;5.00;;;22.90;99.90;;;;;;4993246;28;20173;-70
2021/12/23 11:00:25;;;;;;;14.70;5.10;;;22.90;99.90;;;;;;5012566;28;20192;-70
2021/12/23 11:03:17;;;;;;;12.33;4.97;;;22.90;99.90;;;;;;5001192;28;20182;-68
2021/12/23 11:05:55;;;;;;;18.63;4.77;;;22.90;99.90;;;;;;4976663;28;20198;-68
2021/12/23 11:09:18;;;;;;;15.37;4.70;;;23.00;99.90;;;;;;4993132;28;20178;-68
2021/12/23 11:28:55;;;;;;;13.43;4.60;;;23.00;99.90;;;;;;5011815;28;20243;-67
2021/12/23 11:41:52;;;;;;;17.93;4.87;;;23.00;99.90;;;;;;4993459;28;20288;-71
2021/12/23 11:44:20;;;;;;;8.87;4.60;;;23.00;99.90;;;;;;4994188;28;20221;-72
2021/12/23 11:46:53;;;;;;;13.00;5.27;;;23.00;99.90;;;;;;5003292;28;20642;-70
2021/12/23 11:49:22;;;;;;;11.80;5.20;;;23.00;99.90;;;;;;5013492;28;20210;-72
2021/12/23 11:51:53;;;;;;;15.07;5.87;;;23.00;99.90;;;;;;5013077;28;20177;-72
2021/12/23 11:54:36;;;;;;;19.17;5.67;;;23.00;99.90;;;;;;5013357;28;20603;-71
2021/12/23 11:57:23;;;;;;;12.83;5.70;;;23.10;99.90;;;;;;5001782;28;20509;-70
2021/12/23 12:02:42;;;;;;;15.53;4.50;;;23.10;99.90;;;;;;4993845;28;20182;-72
2021/12/23 12:05:17;;;;;;;13.40;5.17;;;23.20;99.90;;;;;;4993475;28;20695;-72
2021/12/23 12:07:46;;;;;;;13.63;5.00;;;23.20;99.90;;;;;;5001183;28;20182;-71
2021/12/23 12:10:21;;;;;;;11.73;5.03;;;23.10;99.90;;;;;;4993503;28;20181;-72
2021/12/23 12:13:09;;;;;;;10.57;5.47;;;23.10;99.90;;;;;;4993882;28;20544;-71
2021/12/23 12:15:39;;;;;;;13.33;5.93;;;23.00;99.90;;;;;;4978368;28;20193;-71
2021/12/23 12:18:10;;;;;;;10.63;5.27;;;23.00;99.90;;;;;;5013738;28;20690;-72
2021/12/23 12:20:49;;;;;;;10.30;4.80;;;23.00;99.90;;;;;;5013091;28;20177;-72
2021/12/23 12:23:44;;;;;;;12.37;4.77;;;22.90;99.90;;;;;;5012854;28;20658;-71
2021/12/23 12:26:23;;;;;;;18.17;5.40;;;22.80;99.90;;;;;;4993602;28;20179;-71
2021/12/23 12:28:51;;;;;;;19.80;5.33;;;22.80;99.90;;;;;;5001005;28;20220;-72
2021/12/23 12:31:22;;;;;;;13.57;5.07;;;22.70;99.90;;;;;;5012786;28;20256;-71
2021/12/23 12:34:12;;;;;;;17.37;5.50;;;22.70;99.90;;;;;;5016715;28;20651;-71
2021/12/23 12:36:51;;;;;;;10.70;4.83;;;22.70;99.90;;;;;;5001557;28;20193;-70
2021/12/23 12:39:30;;;;;;;12.57;5.07;;;22.60;99.90;;;;;;4998191;28;20182;-71
2021/12/23 12:42:05;;;;;;;13.30;5.63;;;22.50;99.90;;;;;;4997046;28;20612;-72
2021/12/23 12:45:00;;;;;;;15.40;4.70;;;22.50;99.90;;;;;;4996642;28;20223;-71
2021/12/23 12:47:31;;;;;;;13.87;5.10;;;22.50;99.90;;;;;;4996914;28;20182;-71
2021/12/23 12:50:18;;;;;;;13.07;5.13;;;22.50;99.90;;;;;;4996450;28;20223;-72
2021/12/23 12:52:50;;;;;;;17.03;4.97;;;22.50;99.90;;;;;;4989890;28;20218;-71
2021/12/23 12:55:26;;;;;;;18.90;5.40;;;22.50;99.90;;;;;;5016177;28;20180;-71
2021/12/23 12:57:57;;;;;;;13.67;5.70;;;22.40;99.90;;;;;;5004444;28;20522;-70
2021/12/23 13:00:39;;;;;;;11.87;4.83;;;22.50;99.90;;;;;;4996582;28;20552;-71
2021/12/23 13:03:17;;;;;;;16.23;5.60;;;22.50;99.90;;;;;;5000703;28;20216;-71
2021/12/23 13:05:54;;;;;;;17.13;5.43;;;22.50;99.90;;;;;;5014104;28;20591;-71
2021/12/23 13:08:34;;;;;;;11.07;4.87;;;22.50;99.90;;;;;;5015163;28;20188;-71
2021/12/23 13:11:12;;;;;;;17.33;6.07;;;22.60;99.90;;;;;;5016113;28;20183;-70
2021/12/23 13:13:45;;;;;;;15.97;4.73;;;22.60;99.90;;;;;;5015779;28;20173;-70
2021/12/23 13:16:20;;;;;;;9.57;4.67;;;22.70;99.90;;;;;;5015700;28;20540;-71
2021/12/23 13:18:48;;;;;;;17.07;5.43;;;22.70;99.90;;;;;;4997198;28;20207;-71
2021/12/23 13:21:23;;;;;;;15.30;5.30;;;22.80;99.90;;;;;;5011673;28;20671;-72
2021/12/23 13:23:50;;;;;;;14.63;5.07;;;22.90;99.90;;;;;;5014902;28;20248;-72
2021/12/23 13:26:21;;;;;;;18.67;6.10;;;22.90;99.90;;;;;;5015567;28;20646;-71
2021/12/23 13:28:57;;;;;;;9.27;5.10;;;22.90;99.90;;;;;;4996852;28;20180;-70
2021/12/23 13:31:30;;;;;;;12.10;4.60;;;23.00;99.90;;;;;;4995799;28;20229;-71
2021/12/23 13:34:22;;;;;;;11.70;5.37;;;23.00;99.90;;;;;;4995822;28;20192;-71
2021/12/23 13:36:54;;;;;;;10.50;4.97;;;23.00;99.90;;;;;;4993386;28;20205;-71
2021/12/23 13:39:25;;;;;;;13.33;5.03;;;23.00;99.90;;;;;;5016052;28;20172;-71
2021/12/23 13:41:56;;;;;;;14.80;5.23;;;23.00;99.90;;;;;;5015173;28;20221;-71
2021/12/23 13:44:29;;;;;;;12.60;5.50;;;23.00;99.90;;;;;;5014378;28;20579;-71
2021/12/23 13:47:06;;;;;;;13.77;5.00;;;23.00;99.90;;;;;;5011915;28;20179;-71
2021/12/23 13:49:46;;;;;;;11.13;4.87;;;23.00;99.90;;;;;;4995534;28;20200;-72
2021/12/23 13:52:25;;;;;;;10.60;5.13;;;23.00;99.90;;;;;;4995595;28;20190;-70
2021/12/23 13:54:59;;;;;;;11.27;4.37;;;23.00;99.90;;;;;;4978116;28;20200;-71
2021/12/23 13:57:28;;;;;;;9.50;4.73;;;23.00;99.90;;;;;;5002415;28;20553;-71
2021/12/23 13:59:56;;;;;;;15.50;4.83;;;23.00;99.90;;;;;;4995025;28;20284;-70
2021/12/23 14:02:32;;;;;;;11.07;4.30;;;23.00;99.90;;;;;;4995365;28;20181;-70
2021/12/23 14:05:02;;;;;;;12.90;4.83;;;23.00;99.90;;;;;;4995425;28;20697;-69
2021/12/23 14:07:32;;;;;;;12.30;5.03;;;23.00;99.90;;;;;;5001715;28;20196;-70